DLH4LF EDDM-LIMC
Flight info
| Callsign | DLH4LF |
|---|---|
| Flight time | 0h 50m |
| Altitude | 24000 |
| Route | MERSI4E/08R MERSI Y100 ATMAX Z999 KPT/N0375F230 Z999 BEMKI L607 XEBIX Y740 NATAG DCT LORLO DCT ATPED DCT LUSIL DCT EVRIP |
| Aircraft | A321/M-SDE2E3FGIJ1LORWXYZ/HB1 |
Departure
| Time | 2026-05-01 14:33 |
|---|---|
| Airport | Munich Airport (EDDM) |
Arrival
| Time | 2026-05-01 15:24 |
|---|---|
| Airport | Milan Malpensa International Airport (LIMC) |
| Time | Latitude | Longitude | Altitude | Speed | Heading |
|---|---|---|---|---|---|
| 2026-05-01 14:22 | 48.35249 | 11.80147 | 1462 ft | 0 kts | 174° |
| 2026-05-01 14:23 | 48.35239 | 11.80148 | 1464 ft | 2 kts | 174° |
| 2026-05-01 14:23 | 48.35216 | 11.80152 | 1467 ft | 4 kts | 174° |
| 2026-05-01 14:24 | 48.35181 | 11.80146 | 1467 ft | 6 kts | 205° |
| 2026-05-01 14:24 | 48.35162 | 11.80089 | 1462 ft | 7 kts | 259° |
| 2026-05-01 14:24 | 48.35155 | 11.80005 | 1460 ft | 9 kts | 263° |
| 2026-05-01 14:24 | 48.35148 | 11.79901 | 1467 ft | 11 kts | 264° |
| 2026-05-01 14:25 | 48.35139 | 11.79779 | 1459 ft | 13 kts | 263° |
| 2026-05-01 14:25 | 48.35129 | 11.79638 | 1462 ft | 14 kts | 264° |
| 2026-05-01 14:25 | 48.35093 | 11.79527 | 1464 ft | 12 kts | 198° |
| 2026-05-01 14:25 | 48.35008 | 11.79531 | 1463 ft | 13 kts | 174° |
| 2026-05-01 14:26 | 48.34920 | 11.79547 | 1458 ft | 11 kts | 173° |
| 2026-05-01 14:26 | 48.34861 | 11.79558 | 1462 ft | 0 kts | 173° |
| 2026-05-01 14:26 | 48.34859 | 11.79558 | 1463 ft | 2 kts | 173° |
| 2026-05-01 14:27 | 48.34825 | 11.79564 | 1467 ft | 7 kts | 174° |
| 2026-05-01 14:27 | 48.34785 | 11.79500 | 1466 ft | 12 kts | 259° |
| 2026-05-01 14:27 | 48.34773 | 11.79349 | 1467 ft | 17 kts | 263° |
| 2026-05-01 14:28 | 48.34740 | 11.78918 | 1467 ft | 23 kts | 263° |
| 2026-05-01 14:28 | 48.34722 | 11.78678 | 1460 ft | 24 kts | 263° |
| 2026-05-01 14:28 | 48.34702 | 11.78439 | 1463 ft | 20 kts | 264° |
| 2026-05-01 14:28 | 48.34694 | 11.78312 | 1458 ft | 18 kts | 264° |
| 2026-05-01 14:29 | 48.34674 | 11.78051 | 1466 ft | 21 kts | 263° |
| 2026-05-01 14:29 | 48.34656 | 11.77810 | 1467 ft | 25 kts | 263° |
| 2026-05-01 14:30 | 48.34590 | 11.76945 | 1466 ft | 29 kts | 263° |
| 2026-05-01 14:30 | 48.34567 | 11.76651 | 1466 ft | 27 kts | 264° |
| 2026-05-01 14:30 | 48.34545 | 11.76367 | 1462 ft | 28 kts | 263° |
| 2026-05-01 14:31 | 48.34509 | 11.75891 | 1462 ft | 27 kts | 263° |
| 2026-05-01 14:31 | 48.34486 | 11.75607 | 1466 ft | 28 kts | 263° |
| 2026-05-01 14:31 | 48.34466 | 11.75348 | 1466 ft | 17 kts | 263° |
| 2026-05-01 14:31 | 48.34429 | 11.75227 | 1464 ft | 12 kts | 211° |
| 2026-05-01 14:32 | 48.34358 | 11.75217 | 1466 ft | 10 kts | 173° |
| 2026-05-01 14:32 | 48.34283 | 11.75231 | 1462 ft | 12 kts | 173° |
| 2026-05-01 14:32 | 48.34199 | 11.75245 | 1467 ft | 13 kts | 173° |
| 2026-05-01 14:32 | 48.34119 | 11.75261 | 1463 ft | 8 kts | 165° |
| 2026-05-01 14:33 | 48.34083 | 11.75375 | 1475 ft | 27 kts | 84° |
| 2026-05-01 14:33 | 48.34142 | 11.76063 | 1466 ft | 104 kts | 84° |
| 2026-05-01 14:33 | 48.34250 | 11.77440 | 1474 ft | 158 kts | 84° |
| 2026-05-01 14:33 | 48.34372 | 11.79126 | 2091 ft | 163 kts | 85° |
| 2026-05-01 14:34 | 48.34492 | 11.80828 | 2873 ft | 166 kts | 83° |
| 2026-05-01 14:34 | 48.34636 | 11.82682 | 3153 ft | 191 kts | 83° |
| 2026-05-01 14:34 | 48.34798 | 11.84794 | 3419 ft | 215 kts | 83° |
| 2026-05-01 14:34 | 48.34970 | 11.87108 | 4025 ft | 224 kts | 84° |
| 2026-05-01 14:35 | 48.35140 | 11.89449 | 4892 ft | 229 kts | 84° |
| 2026-05-01 14:35 | 48.35324 | 11.91852 | 5654 ft | 233 kts | 84° |
| 2026-05-01 14:35 | 48.35335 | 11.94300 | 6403 ft | 237 kts | 103° |
| 2026-05-01 14:35 | 48.34625 | 11.96533 | 7084 ft | 242 kts | 129° |
| 2026-05-01 14:36 | 48.33341 | 11.98188 | 7585 ft | 248 kts | 140° |
| 2026-05-01 14:36 | 48.31971 | 11.99768 | 8356 ft | 248 kts | 140° |
| 2026-05-01 14:36 | 48.30574 | 12.01345 | 9079 ft | 255 kts | 145° |
| 2026-05-01 14:36 | 48.28928 | 12.02427 | 9774 ft | 265 kts | 163° |
| 2026-05-01 14:37 | 48.27017 | 12.02710 | 10121 ft | 289 kts | 180° |
| 2026-05-01 14:37 | 48.24978 | 12.02551 | 10669 ft | 297 kts | 180° |
| 2026-05-01 14:37 | 48.22894 | 12.02403 | 11330 ft | 302 kts | 180° |
| 2026-05-01 14:37 | 48.20784 | 12.02265 | 12021 ft | 306 kts | 179° |
| 2026-05-01 14:38 | 48.18646 | 12.02138 | 12685 ft | 309 kts | 179° |
| 2026-05-01 14:38 | 48.16484 | 12.02017 | 13378 ft | 313 kts | 179° |
| 2026-05-01 14:38 | 48.14314 | 12.01895 | 14067 ft | 316 kts | 179° |
| 2026-05-01 14:38 | 48.12103 | 12.01758 | 14685 ft | 321 kts | 181° |
| 2026-05-01 14:39 | 48.09901 | 12.00984 | 15234 ft | 331 kts | 201° |
| 2026-05-01 14:39 | 48.07944 | 11.99131 | 15816 ft | 337 kts | 222° |
| 2026-05-01 14:39 | 48.06492 | 11.96380 | 16437 ft | 340 kts | 242° |
| 2026-05-01 14:39 | 48.05692 | 11.93052 | 17028 ft | 342 kts | 257° |
| 2026-05-01 14:40 | 48.05120 | 11.89582 | 17633 ft | 345 kts | 257° |
| 2026-05-01 14:40 | 48.04541 | 11.86094 | 18236 ft | 348 kts | 257° |
| 2026-05-01 14:40 | 48.03951 | 11.82574 | 18801 ft | 351 kts | 257° |
| 2026-05-01 14:40 | 48.03352 | 11.79030 | 19314 ft | 353 kts | 257° |
| 2026-05-01 14:41 | 48.02743 | 11.75458 | 19816 ft | 356 kts | 257° |
| 2026-05-01 14:41 | 48.02129 | 11.71868 | 20359 ft | 358 kts | 257° |
| 2026-05-01 14:41 | 48.01510 | 11.68249 | 20871 ft | 361 kts | 258° |
| 2026-05-01 14:41 | 48.01122 | 11.64554 | 21366 ft | 361 kts | 269° |
| 2026-05-01 14:42 | 48.00960 | 11.60807 | 21867 ft | 363 kts | 269° |
| 2026-05-01 14:42 | 48.00792 | 11.57034 | 22376 ft | 365 kts | 269° |
| 2026-05-01 14:42 | 48.00618 | 11.53233 | 22877 ft | 368 kts | 269° |
| 2026-05-01 14:42 | 48.00439 | 11.49415 | 23401 ft | 369 kts | 268° |
| 2026-05-01 14:43 | 48.00258 | 11.45581 | 23904 ft | 371 kts | 268° |
| 2026-05-01 14:43 | 48.00074 | 11.41720 | 24232 ft | 374 kts | 269° |
| 2026-05-01 14:43 | 47.99890 | 11.37844 | 24312 ft | 379 kts | 269° |
| 2026-05-01 14:43 | 47.99700 | 11.33840 | 24331 ft | 394 kts | 268° |
| 2026-05-01 14:44 | 47.99503 | 11.29725 | 24331 ft | 400 kts | 268° |
| 2026-05-01 14:44 | 47.99093 | 11.21412 | 24327 ft | 403 kts | 268° |
| 2026-05-01 14:44 | 47.98882 | 11.17244 | 24327 ft | 403 kts | 268° |
| 2026-05-01 14:45 | 47.98673 | 11.13109 | 24326 ft | 403 kts | 268° |
| 2026-05-01 14:45 | 47.98215 | 11.04783 | 24326 ft | 403 kts | 263° |
| 2026-05-01 14:45 | 47.97596 | 11.00712 | 24328 ft | 404 kts | 256° |
| 2026-05-01 14:46 | 47.96861 | 10.96671 | 24329 ft | 404 kts | 257° |
| 2026-05-01 14:46 | 47.95413 | 10.88644 | 24332 ft | 404 kts | 257° |
| 2026-05-01 14:46 | 47.94689 | 10.84597 | 24334 ft | 404 kts | 257° |
| 2026-05-01 14:47 | 47.93965 | 10.80547 | 24337 ft | 404 kts | 257° |
| 2026-05-01 14:47 | 47.93158 | 10.76534 | 24335 ft | 405 kts | 250° |
| 2026-05-01 14:47 | 47.91924 | 10.72754 | 24334 ft | 407 kts | 239° |
| 2026-05-01 14:48 | 47.88763 | 10.65827 | 24334 ft | 407 kts | 237° |
| 2026-05-01 14:48 | 47.87146 | 10.62304 | 24333 ft | 407 kts | 237° |
| 2026-05-01 14:48 | 47.83981 | 10.55386 | 24326 ft | 406 kts | 237° |
| 2026-05-01 14:49 | 47.80792 | 10.48452 | 24319 ft | 406 kts | 237° |
| 2026-05-01 14:49 | 47.77585 | 10.41552 | 24319 ft | 405 kts | 233° |
| 2026-05-01 14:50 | 47.74173 | 10.36811 | 24313 ft | 406 kts | 213° |
| 2026-05-01 14:50 | 47.68062 | 10.33432 | 24308 ft | 403 kts | 187° |
| 2026-05-01 14:51 | 47.65288 | 10.32786 | 24307 ft | 403 kts | 188° |
| 2026-05-01 14:51 | 47.59729 | 10.31709 | 24302 ft | 402 kts | 179° |
| 2026-05-01 14:52 | 47.54304 | 10.33207 | 24302 ft | 396 kts | 155° |
| 2026-05-01 14:52 | 47.51868 | 10.35069 | 24297 ft | 393 kts | 144° |
| 2026-05-01 14:52 | 47.47477 | 10.39842 | 24290 ft | 392 kts | 141° |
| 2026-05-01 14:53 | 47.45309 | 10.42210 | 24293 ft | 393 kts | 141° |
| 2026-05-01 14:53 | 47.43107 | 10.44601 | 24291 ft | 393 kts | 142° |
| 2026-05-01 14:53 | 47.40882 | 10.46533 | 24300 ft | 396 kts | 152° |
| 2026-05-01 14:53 | 47.38286 | 10.47938 | 24298 ft | 400 kts | 163° |
| 2026-05-01 14:54 | 47.35536 | 10.48636 | 24289 ft | 403 kts | 173° |
| 2026-05-01 14:54 | 47.32747 | 10.49020 | 24288 ft | 403 kts | 173° |
| 2026-05-01 14:54 | 47.29952 | 10.49413 | 24282 ft | 403 kts | 172° |
| 2026-05-01 14:54 | 47.27159 | 10.49812 | 24283 ft | 404 kts | 172° |
| 2026-05-01 14:55 | 47.24362 | 10.50217 | 24280 ft | 404 kts | 172° |
| 2026-05-01 14:55 | 47.21561 | 10.50621 | 24279 ft | 404 kts | 172° |
| 2026-05-01 14:55 | 47.18764 | 10.51024 | 24277 ft | 404 kts | 172° |
| 2026-05-01 14:55 | 47.15967 | 10.51425 | 24276 ft | 404 kts | 172° |
| 2026-05-01 14:56 | 47.13173 | 10.51818 | 24278 ft | 404 kts | 173° |
| 2026-05-01 14:56 | 47.10371 | 10.52216 | 24284 ft | 404 kts | 172° |
| 2026-05-01 14:56 | 47.07572 | 10.52615 | 24282 ft | 404 kts | 172° |
| 2026-05-01 14:56 | 47.04807 | 10.53302 | 24273 ft | 402 kts | 163° |
| 2026-05-01 14:57 | 47.02137 | 10.54478 | 24274 ft | 401 kts | 160° |
| 2026-05-01 14:57 | 46.96837 | 10.56885 | 24271 ft | 402 kts | 160° |
| 2026-05-01 14:57 | 46.94130 | 10.58114 | 24266 ft | 402 kts | 160° |
| 2026-05-01 14:58 | 46.91492 | 10.59306 | 24270 ft | 402 kts | 160° |
| 2026-05-01 14:58 | 46.88821 | 10.60513 | 24277 ft | 402 kts | 160° |
| 2026-05-01 14:58 | 46.86143 | 10.61716 | 24274 ft | 402 kts | 160° |
| 2026-05-01 14:58 | 46.83468 | 10.62919 | 24273 ft | 402 kts | 160° |
| 2026-05-01 14:59 | 46.80794 | 10.64119 | 24297 ft | 403 kts | 160° |
| 2026-05-01 14:59 | 46.78116 | 10.65325 | 24299 ft | 403 kts | 160° |
| 2026-05-01 14:59 | 46.75411 | 10.66424 | 24293 ft | 405 kts | 167° |
| 2026-05-01 14:59 | 46.72607 | 10.66873 | 24290 ft | 407 kts | 178° |
| 2026-05-01 15:00 | 46.67029 | 10.65529 | 24290 ft | 410 kts | 197° |
| 2026-05-01 15:00 | 46.64309 | 10.64313 | 24286 ft | 409 kts | 196° |
| 2026-05-01 15:00 | 46.61578 | 10.63106 | 24292 ft | 410 kts | 196° |
| 2026-05-01 15:01 | 46.58840 | 10.61907 | 24294 ft | 411 kts | 196° |
| 2026-05-01 15:01 | 46.56099 | 10.60711 | 24303 ft | 412 kts | 196° |
| 2026-05-01 15:01 | 46.53355 | 10.59514 | 24301 ft | 412 kts | 196° |
| 2026-05-01 15:01 | 46.50612 | 10.58318 | 24304 ft | 412 kts | 196° |
| 2026-05-01 15:02 | 46.47867 | 10.57121 | 24321 ft | 412 kts | 196° |
| 2026-05-01 15:02 | 46.46939 | 10.56716 | 24316 ft | 412 kts | 196° |
| 2026-05-01 15:02 | 46.42383 | 10.54725 | 24317 ft | 412 kts | 196° |
| 2026-05-01 15:02 | 46.39636 | 10.53524 | 24318 ft | 412 kts | 196° |
| 2026-05-01 15:03 | 46.36892 | 10.52328 | 24313 ft | 412 kts | 196° |
| 2026-05-01 15:03 | 46.34145 | 10.51135 | 24315 ft | 412 kts | 196° |
| 2026-05-01 15:03 | 46.31398 | 10.49943 | 24324 ft | 412 kts | 196° |
| 2026-05-01 15:03 | 46.28652 | 10.48759 | 24327 ft | 412 kts | 196° |
| 2026-05-01 15:04 | 46.25904 | 10.47571 | 24324 ft | 412 kts | 196° |
| 2026-05-01 15:04 | 46.23159 | 10.46381 | 24330 ft | 412 kts | 196° |
| 2026-05-01 15:04 | 46.20415 | 10.45174 | 24333 ft | 412 kts | 199° |
| 2026-05-01 15:04 | 46.17815 | 10.43435 | 24299 ft | 410 kts | 212° |
| 2026-05-01 15:05 | 46.15570 | 10.40995 | 24014 ft | 401 kts | 225° |
| 2026-05-01 15:05 | 46.13770 | 10.37993 | 23520 ft | 393 kts | 238° |
| 2026-05-01 15:05 | 46.12443 | 10.34608 | 23120 ft | 384 kts | 246° |
| 2026-05-01 15:05 | 46.11251 | 10.31192 | 22691 ft | 379 kts | 245° |
| 2026-05-01 15:06 | 46.10064 | 10.27833 | 22266 ft | 374 kts | 245° |
| 2026-05-01 15:06 | 46.08886 | 10.24520 | 21854 ft | 370 kts | 245° |
| 2026-05-01 15:06 | 46.07714 | 10.21242 | 21433 ft | 366 kts | 244° |
| 2026-05-01 15:06 | 46.06555 | 10.18004 | 21024 ft | 362 kts | 244° |
| 2026-05-01 15:07 | 46.05408 | 10.14802 | 20615 ft | 358 kts | 244° |
| 2026-05-01 15:07 | 46.04276 | 10.11631 | 20195 ft | 354 kts | 244° |
| 2026-05-01 15:07 | 46.03176 | 10.08469 | 19790 ft | 351 kts | 245° |
| 2026-05-01 15:07 | 46.02119 | 10.05326 | 19394 ft | 348 kts | 246° |
| 2026-05-01 15:08 | 46.01081 | 10.02192 | 19006 ft | 345 kts | 246° |
| 2026-05-01 15:08 | 46.00056 | 9.99081 | 18613 ft | 343 kts | 246° |
| 2026-05-01 15:08 | 45.99036 | 9.95999 | 18177 ft | 340 kts | 246° |
| 2026-05-01 15:08 | 45.98014 | 9.92954 | 17778 ft | 336 kts | 245° |
| 2026-05-01 15:09 | 45.96998 | 9.89956 | 17400 ft | 332 kts | 245° |
| 2026-05-01 15:09 | 45.95992 | 9.86992 | 17007 ft | 329 kts | 245° |
| 2026-05-01 15:09 | 45.94996 | 9.84054 | 16641 ft | 325 kts | 245° |
| 2026-05-01 15:09 | 45.94012 | 9.81149 | 16274 ft | 322 kts | 245° |
| 2026-05-01 15:10 | 45.93035 | 9.78265 | 15897 ft | 319 kts | 245° |
| 2026-05-01 15:10 | 45.91107 | 9.72586 | 15158 ft | 312 kts | 245° |
| 2026-05-01 15:10 | 45.90159 | 9.69801 | 14803 ft | 310 kts | 244° |
| 2026-05-01 15:11 | 45.89216 | 9.67033 | 14439 ft | 308 kts | 244° |
| 2026-05-01 15:11 | 45.87336 | 9.61531 | 13687 ft | 305 kts | 244° |
| 2026-05-01 15:11 | 45.86405 | 9.58808 | 13332 ft | 302 kts | 244° |
| 2026-05-01 15:12 | 45.85542 | 9.56073 | 12978 ft | 300 kts | 252° |
| 2026-05-01 15:12 | 45.84817 | 9.50286 | 12269 ft | 293 kts | 264° |
| 2026-05-01 15:12 | 45.84566 | 9.47402 | 11906 ft | 290 kts | 264° |
| 2026-05-01 15:13 | 45.83800 | 9.38943 | 10882 ft | 283 kts | 264° |
| 2026-05-01 15:14 | 45.83298 | 9.33399 | 10197 ft | 278 kts | 264° |
| 2026-05-01 15:14 | 45.83050 | 9.30655 | 9832 ft | 276 kts | 264° |
| 2026-05-01 15:14 | 45.82559 | 9.25266 | 9160 ft | 269 kts | 263° |
| 2026-05-01 15:15 | 45.82076 | 9.19989 | 8492 ft | 265 kts | 263° |
| 2026-05-01 15:15 | 45.81605 | 9.14796 | 7845 ft | 260 kts | 263° |
| 2026-05-01 15:16 | 45.81134 | 9.09698 | 7203 ft | 256 kts | 263° |
| 2026-05-01 15:16 | 45.80743 | 9.05500 | 6664 ft | 255 kts | 262° |
| 2026-05-01 15:17 | 45.80262 | 9.00329 | 5666 ft | 264 kts | 262° |
| 2026-05-01 15:18 | 45.79535 | 8.92569 | 4642 ft | 258 kts | 262° |
| 2026-05-01 15:18 | 45.79296 | 8.90032 | 4318 ft | 256 kts | 262° |
| 2026-05-01 15:19 | 45.78591 | 8.82593 | 3539 ft | 240 kts | 261° |
| 2026-05-01 15:19 | 45.78158 | 8.78084 | 3378 ft | 217 kts | 261° |
| 2026-05-01 15:19 | 45.77958 | 8.75987 | 3250 ft | 210 kts | 262° |
| 2026-05-01 15:20 | 45.76852 | 8.72383 | 3082 ft | 185 kts | 226° |
| 2026-05-01 15:20 | 45.75853 | 8.71250 | 3021 ft | 185 kts | 209° |
| 2026-05-01 15:20 | 45.74660 | 8.70593 | 2911 ft | 181 kts | 192° |
| 2026-05-01 15:21 | 45.73448 | 8.70489 | 2719 ft | 170 kts | 174° |
| 2026-05-01 15:21 | 45.72325 | 8.70776 | 2518 ft | 158 kts | 169° |
| 2026-05-01 15:21 | 45.71284 | 8.71063 | 2300 ft | 147 kts | 169° |
| 2026-05-01 15:21 | 45.70291 | 8.71335 | 2088 ft | 148 kts | 169° |
| 2026-05-01 15:22 | 45.68303 | 8.71898 | 1689 ft | 145 kts | 169° |
| 2026-05-01 15:22 | 45.67311 | 8.72169 | 1441 ft | 146 kts | 169° |
| 2026-05-01 15:22 | 45.66318 | 8.72442 | 1244 ft | 146 kts | 169° |
| 2026-05-01 15:23 | 45.65321 | 8.72723 | 1023 ft | 145 kts | 169° |
| 2026-05-01 15:23 | 45.64342 | 8.72986 | 845 ft | 142 kts | 170° |
| 2026-05-01 15:23 | 45.63407 | 8.73245 | 746 ft | 126 kts | 169° |
| 2026-05-01 15:23 | 45.62690 | 8.73442 | 745 ft | 81 kts | 169° |
| 2026-05-01 15:24 | 45.62312 | 8.73546 | 745 ft | 32 kts | 169° |
| 2026-05-01 15:24 | 45.62164 | 8.73587 | 743 ft | 25 kts | 169° |
| 2026-05-01 15:24 | 45.61955 | 8.73643 | 744 ft | 35 kts | 169° |
| 2026-05-01 15:24 | 45.61731 | 8.73704 | 743 ft | 22 kts | 172° |
| 2026-05-01 15:25 | 45.61616 | 8.73706 | 745 ft | 15 kts | 213° |
| 2026-05-01 15:25 | 45.61587 | 8.73591 | 751 ft | 11 kts | 271° |
| 2026-05-01 15:25 | 45.61607 | 8.73492 | 749 ft | 11 kts | 294° |
| 2026-05-01 15:25 | 45.61650 | 8.73397 | 752 ft | 12 kts | 304° |
| 2026-05-01 15:26 | 45.61666 | 8.73364 | 748 ft | 0 kts | 304° |
| 2026-05-01 15:27 | 45.61668 | 8.73359 | 748 ft | 2 kts | 304° |
| 2026-05-01 15:27 | 45.61694 | 8.73306 | 750 ft | 9 kts | 304° |
| 2026-05-01 15:27 | 45.61733 | 8.73223 | 750 ft | 11 kts | 304° |
| 2026-05-01 15:28 | 45.61896 | 8.73129 | 753 ft | 15 kts | 351° |
| 2026-05-01 15:28 | 45.62003 | 8.73102 | 752 ft | 17 kts | 349° |
| 2026-05-01 15:28 | 45.62122 | 8.73069 | 752 ft | 18 kts | 349° |
| 2026-05-01 15:29 | 45.62394 | 8.72994 | 752 ft | 22 kts | 349° |
| 2026-05-01 15:29 | 45.62546 | 8.72953 | 751 ft | 23 kts | 349° |
| 2026-05-01 15:29 | 45.62881 | 8.72859 | 752 ft | 26 kts | 349° |
| 2026-05-01 15:30 | 45.63227 | 8.72765 | 753 ft | 21 kts | 349° |
| 2026-05-01 15:31 | 45.63375 | 8.72404 | 750 ft | 12 kts | 258° |
| 2026-05-01 15:31 | 45.63367 | 8.72346 | 748 ft | 0 kts | 259° |
| 2026-05-01 15:32 | 45.63359 | 8.72286 | 744 ft | 8 kts | 259° |
| 2026-05-01 15:33 | 45.63326 | 8.72051 | 749 ft | 6 kts | 259° |
| 2026-05-01 15:34 | 45.63214 | 8.71986 | 748 ft | 11 kts | 169° |